sensor_id;sensor_type;location;lat;lon;timestamp;P1;durP1;ratioP1;P2;durP2;ratioP2
70213;SDS011;60138;55.808;37.078;2023-03-23T00:01:53;4.87;;;4.10;;
70213;SDS011;60138;55.808;37.078;2023-03-23T00:04:19;5.88;;;4.47;;
70213;SDS011;60138;55.808;37.078;2023-03-23T00:06:45;6.00;;;4.30;;
70213;SDS011;60138;55.808;37.078;2023-03-23T00:09:12;6.78;;;4.45;;
70213;SDS011;60138;55.808;37.078;2023-03-23T00:11:39;6.30;;;4.28;;
70213;SDS011;60138;55.808;37.078;2023-03-23T00:14:04;5.53;;;3.80;;
70213;SDS011;60138;55.808;37.078;2023-03-23T00:16:31;5.40;;;4.45;;
70213;SDS011;60138;55.808;37.078;2023-03-23T00:18:59;6.07;;;4.43;;
70213;SDS011;60138;55.808;37.078;2023-03-23T00:21:34;6.40;;;4.30;;
70213;SDS011;60138;55.808;37.078;2023-03-23T00:26:32;5.80;;;4.13;;
70213;SDS011;60138;55.808;37.078;2023-03-23T00:29:02;6.28;;;4.50;;
70213;SDS011;60138;55.808;37.078;2023-03-23T00:31:29;6.93;;;4.57;;
70213;SDS011;60138;55.808;37.078;2023-03-23T00:33:55;4.97;;;4.25;;
70213;SDS011;60138;55.808;37.078;2023-03-23T00:36:21;5.88;;;3.85;;
70213;SDS011;60138;55.808;37.078;2023-03-23T00:38:46;5.73;;;4.53;;
70213;SDS011;60138;55.808;37.078;2023-03-23T00:41:12;5.40;;;4.15;;
70213;SDS011;60138;55.808;37.078;2023-03-23T00:43:38;5.50;;;4.72;;
70213;SDS011;60138;55.808;37.078;2023-03-23T00:46:03;6.00;;;4.77;;
70213;SDS011;60138;55.808;37.078;2023-03-23T00:48:29;5.68;;;4.30;;
70213;SDS011;60138;55.808;37.078;2023-03-23T00:50:55;5.53;;;4.30;;
70213;SDS011;60138;55.808;37.078;2023-03-23T00:53:21;5.35;;;4.38;;
70213;SDS011;60138;55.808;37.078;2023-03-23T00:55:48;5.13;;;4.38;;
70213;SDS011;60138;55.808;37.078;2023-03-23T00:58:14;5.33;;;4.20;;
70213;SDS011;60138;55.808;37.078;2023-03-23T01:00:41;4.57;;;3.83;;
70213;SDS011;60138;55.808;37.078;2023-03-23T01:03:08;5.00;;;4.20;;
70213;SDS011;60138;55.808;37.078;2023-03-23T01:05:35;5.93;;;3.88;;
70213;SDS011;60138;55.808;37.078;2023-03-23T01:08:01;5.13;;;4.47;;
70213;SDS011;60138;55.808;37.078;2023-03-23T01:10:30;5.07;;;4.20;;
70213;SDS011;60138;55.808;37.078;2023-03-23T01:12:56;5.38;;;4.80;;
70213;SDS011;60138;55.808;37.078;2023-03-23T01:15:21;6.47;;;4.55;;
70213;SDS011;60138;55.808;37.078;2023-03-23T01:17:47;5.53;;;3.80;;
70213;SDS011;60138;55.808;37.078;2023-03-23T01:20:14;5.38;;;3.97;;
70213;SDS011;60138;55.808;37.078;2023-03-23T01:22:41;5.45;;;4.05;;
70213;SDS011;60138;55.808;37.078;2023-03-23T01:25:08;5.33;;;4.30;;
70213;SDS011;60138;55.808;37.078;2023-03-23T01:27:34;4.78;;;4.15;;
70213;SDS011;60138;55.808;37.078;2023-03-23T01:30:00;5.95;;;3.88;;
70213;SDS011;60138;55.808;37.078;2023-03-23T01:32:26;4.90;;;3.58;;
70213;SDS011;60138;55.808;37.078;2023-03-23T01:34:53;5.15;;;3.90;;
70213;SDS011;60138;55.808;37.078;2023-03-23T01:37:19;6.00;;;4.23;;
70213;SDS011;60138;55.808;37.078;2023-03-23T01:39:45;5.45;;;4.38;;
70213;SDS011;60138;55.808;37.078;2023-03-23T01:42:11;4.80;;;3.55;;
70213;SDS011;60138;55.808;37.078;2023-03-23T01:47:05;5.25;;;4.47;;
70213;SDS011;60138;55.808;37.078;2023-03-23T01:49:35;5.65;;;4.20;;
70213;SDS011;60138;55.808;37.078;2023-03-23T01:52:04;5.70;;;5.10;;
70213;SDS011;60138;55.808;37.078;2023-03-23T01:54:39;5.00;;;4.07;;
70213;SDS011;60138;55.808;37.078;2023-03-23T01:57:06;5.90;;;3.93;;
70213;SDS011;60138;55.808;37.078;2023-03-23T01:59:36;5.57;;;4.07;;
70213;SDS011;60138;55.808;37.078;2023-03-23T02:02:34;5.10;;;3.92;;
70213;SDS011;60138;55.808;37.078;2023-03-23T02:05:02;5.43;;;4.38;;
70213;SDS011;60138;55.808;37.078;2023-03-23T02:07:33;4.70;;;4.05;;
70213;SDS011;60138;55.808;37.078;2023-03-23T02:10:02;6.00;;;4.10;;
70213;SDS011;60138;55.808;37.078;2023-03-23T02:12:31;5.90;;;4.18;;
70213;SDS011;60138;55.808;37.078;2023-03-23T02:14:58;6.70;;;4.35;;
70213;SDS011;60138;55.808;37.078;2023-03-23T02:17:27;6.05;;;4.63;;
70213;SDS011;60138;55.808;37.078;2023-03-23T02:22:48;6.38;;;4.78;;
70213;SDS011;60138;55.808;37.078;2023-03-23T02:34:18;6.23;;;4.57;;
70213;SDS011;60138;55.808;37.078;2023-03-23T02:37:00;6.93;;;4.60;;
70213;SDS011;60138;55.808;37.078;2023-03-23T02:39:34;6.18;;;4.78;;
70213;SDS011;60138;55.808;37.078;2023-03-23T02:42:31;6.55;;;5.05;;
70213;SDS011;60138;55.808;37.078;2023-03-23T02:44:58;6.63;;;4.53;;
70213;SDS011;60138;55.808;37.078;2023-03-23T02:47:29;6.17;;;4.20;;
70213;SDS011;60138;55.808;37.078;2023-03-23T02:49:55;5.78;;;4.45;;
70213;SDS011;60138;55.808;37.078;2023-03-23T02:52:24;5.13;;;4.63;;
70213;SDS011;60138;55.808;37.078;2023-03-23T02:54:53;7.07;;;4.97;;
70213;SDS011;60138;55.808;37.078;2023-03-23T02:57:20;6.20;;;4.85;;
70213;SDS011;60138;55.808;37.078;2023-03-23T02:59:48;5.83;;;5.23;;
70213;SDS011;60138;55.808;37.078;2023-03-23T03:02:15;5.90;;;4.82;;
70213;SDS011;60138;55.808;37.078;2023-03-23T03:08:12;5.90;;;4.53;;
70213;SDS011;60138;55.808;37.078;2023-03-23T03:11:08;6.50;;;4.70;;
70213;SDS011;60138;55.808;37.078;2023-03-23T03:13:44;6.80;;;5.22;;
70213;SDS011;60138;55.808;37.078;2023-03-23T03:19:10;6.78;;;4.63;;
70213;SDS011;60138;55.808;37.078;2023-03-23T03:21:43;7.03;;;5.77;;
70213;SDS011;60138;55.808;37.078;2023-03-23T03:24:14;5.88;;;5.28;;
70213;SDS011;60138;55.808;37.078;2023-03-23T03:26:46;6.38;;;5.15;;
70213;SDS011;60138;55.808;37.078;2023-03-23T03:29:21;8.70;;;5.20;;
70213;SDS011;60138;55.808;37.078;2023-03-23T03:31:52;6.72;;;4.97;;
70213;SDS011;60138;55.808;37.078;2023-03-23T03:34:20;5.53;;;4.63;;
70213;SDS011;60138;55.808;37.078;2023-03-23T03:36:47;6.88;;;5.10;;
70213;SDS011;60138;55.808;37.078;2023-03-23T03:39:14;7.13;;;5.13;;
70213;SDS011;60138;55.808;37.078;2023-03-23T03:41:42;6.97;;;5.53;;
70213;SDS011;60138;55.808;37.078;2023-03-23T03:44:08;7.15;;;5.13;;
70213;SDS011;60138;55.808;37.078;2023-03-23T03:46:34;7.80;;;6.13;;
70213;SDS011;60138;55.808;37.078;2023-03-23T03:49:02;8.30;;;5.55;;
70213;SDS011;60138;55.808;37.078;2023-03-23T03:51:30;8.35;;;6.22;;
70213;SDS011;60138;55.808;37.078;2023-03-23T03:53:57;6.35;;;4.63;;
70213;SDS011;60138;55.808;37.078;2023-03-23T03:56:23;6.78;;;5.07;;
70213;SDS011;60138;55.808;37.078;2023-03-23T03:59:02;7.70;;;5.10;;
70213;SDS011;60138;55.808;37.078;2023-03-23T04:01:45;6.63;;;5.25;;
70213;SDS011;60138;55.808;37.078;2023-03-23T04:04:12;7.57;;;5.68;;
70213;SDS011;60138;55.808;37.078;2023-03-23T04:06:39;7.63;;;5.40;;
70213;SDS011;60138;55.808;37.078;2023-03-23T04:09:05;7.20;;;5.67;;
70213;SDS011;60138;55.808;37.078;2023-03-23T04:11:31;7.65;;;5.45;;
70213;SDS011;60138;55.808;37.078;2023-03-23T04:14:16;8.50;;;5.63;;
70213;SDS011;60138;55.808;37.078;2023-03-23T04:16:43;9.82;;;5.68;;
70213;SDS011;60138;55.808;37.078;2023-03-23T04:19:09;8.40;;;6.27;;
70213;SDS011;60138;55.808;37.078;2023-03-23T04:21:35;10.75;;;6.05;;
70213;SDS011;60138;55.808;37.078;2023-03-23T04:24:00;8.83;;;5.67;;
70213;SDS011;60138;55.808;37.078;2023-03-23T04:26:27;8.40;;;6.07;;
70213;SDS011;60138;55.808;37.078;2023-03-23T04:28:55;9.10;;;5.80;;
70213;SDS011;60138;55.808;37.078;2023-03-23T04:31:33;7.25;;;5.75;;
70213;SDS011;60138;55.808;37.078;2023-03-23T04:34:24;8.60;;;5.93;;
70213;SDS011;60138;55.808;37.078;2023-03-23T04:36:51;8.30;;;6.30;;
70213;SDS011;60138;55.808;37.078;2023-03-23T04:39:21;9.63;;;6.47;;
70213;SDS011;60138;55.808;37.078;2023-03-23T04:41:47;7.55;;;5.50;;
70213;SDS011;60138;55.808;37.078;2023-03-23T04:44:36;7.88;;;5.80;;
70213;SDS011;60138;55.808;37.078;2023-03-23T04:47:08;8.48;;;5.90;;
70213;SDS011;60138;55.808;37.078;2023-03-23T04:49:35;7.35;;;5.82;;
70213;SDS011;60138;55.808;37.078;2023-03-23T04:52:21;8.05;;;5.45;;
70213;SDS011;60138;55.808;37.078;2023-03-23T04:54:53;10.13;;;5.97;;
70213;SDS011;60138;55.808;37.078;2023-03-23T04:57:19;10.88;;;6.35;;
70213;SDS011;60138;55.808;37.078;2023-03-23T05:00:04;8.02;;;6.05;;
70213;SDS011;60138;55.808;37.078;2023-03-23T05:02:38;10.05;;;6.20;;
70213;SDS011;60138;55.808;37.078;2023-03-23T05:05:04;11.50;;;6.50;;
70213;SDS011;60138;55.808;37.078;2023-03-23T05:07:33;10.48;;;6.20;;
70213;SDS011;60138;55.808;37.078;2023-03-23T05:10:00;9.77;;;5.43;;
70213;SDS011;60138;55.808;37.078;2023-03-23T05:12:29;9.40;;;6.10;;
70213;SDS011;60138;55.808;37.078;2023-03-23T05:15:01;8.15;;;5.60;;
70213;SDS011;60138;55.808;37.078;2023-03-23T05:17:30;9.20;;;6.03;;
70213;SDS011;60138;55.808;37.078;2023-03-23T05:19:59;8.82;;;5.65;;
70213;SDS011;60138;55.808;37.078;2023-03-23T05:22:33;10.50;;;6.57;;
70213;SDS011;60138;55.808;37.078;2023-03-23T05:25:00;10.65;;;6.80;;
70213;SDS011;60138;55.808;37.078;2023-03-23T05:27:26;10.93;;;7.00;;
70213;SDS011;60138;55.808;37.078;2023-03-23T05:29:52;10.18;;;8.05;;
70213;SDS011;60138;55.808;37.078;2023-03-23T05:32:20;10.77;;;6.97;;
70213;SDS011;60138;55.808;37.078;2023-03-23T05:34:46;10.02;;;6.53;;
70213;SDS011;60138;55.808;37.078;2023-03-23T05:37:12;11.00;;;6.20;;
70213;SDS011;60138;55.808;37.078;2023-03-23T05:39:45;10.68;;;6.45;;
70213;SDS011;60138;55.808;37.078;2023-03-23T05:42:13;11.23;;;7.13;;
70213;SDS011;60138;55.808;37.078;2023-03-23T05:45:03;10.15;;;6.88;;
70213;SDS011;60138;55.808;37.078;2023-03-23T05:47:29;12.10;;;7.43;;
70213;SDS011;60138;55.808;37.078;2023-03-23T05:50:01;10.80;;;7.67;;
70213;SDS011;60138;55.808;37.078;2023-03-23T05:52:29;10.35;;;7.22;;
70213;SDS011;60138;55.808;37.078;2023-03-23T05:54:55;9.98;;;7.47;;
70213;SDS011;60138;55.808;37.078;2023-03-23T05:57:22;13.55;;;7.75;;
70213;SDS011;60138;55.808;37.078;2023-03-23T05:59:58;12.55;;;7.03;;
70213;SDS011;60138;55.808;37.078;2023-03-23T06:02:24;12.73;;;7.72;;
70213;SDS011;60138;55.808;37.078;2023-03-23T06:04:52;12.87;;;6.50;;
70213;SDS011;60138;55.808;37.078;2023-03-23T06:07:24;10.60;;;6.63;;
70213;SDS011;60138;55.808;37.078;2023-03-23T06:09:56;10.32;;;7.18;;
70213;SDS011;60138;55.808;37.078;2023-03-23T06:12:22;10.00;;;6.57;;
70213;SDS011;60138;55.808;37.078;2023-03-23T06:14:59;8.60;;;5.68;;
70213;SDS011;60138;55.808;37.078;2023-03-23T06:17:43;10.90;;;7.40;;
70213;SDS011;60138;55.808;37.078;2023-03-23T06:20:09;10.48;;;6.40;;
70213;SDS011;60138;55.808;37.078;2023-03-23T06:22:37;11.53;;;6.93;;
70213;SDS011;60138;55.808;37.078;2023-03-23T06:25:10;9.32;;;6.22;;
70213;SDS011;60138;55.808;37.078;2023-03-23T06:27:40;11.40;;;7.03;;
70213;SDS011;60138;55.808;37.078;2023-03-23T06:30:07;11.18;;;7.32;;
70213;SDS011;60138;55.808;37.078;2023-03-23T06:32:33;16.77;;;7.63;;
70213;SDS011;60138;55.808;37.078;2023-03-23T06:35:01;9.37;;;6.53;;
70213;SDS011;60138;55.808;37.078;2023-03-23T06:37:56;10.20;;;7.32;;
70213;SDS011;60138;55.808;37.078;2023-03-23T06:40:33;10.45;;;6.10;;
70213;SDS011;60138;55.808;37.078;2023-03-23T06:42:59;10.17;;;6.30;;
70213;SDS011;60138;55.808;37.078;2023-03-23T06:45:25;10.95;;;6.15;;
70213;SDS011;60138;55.808;37.078;2023-03-23T06:48:05;10.50;;;6.93;;
70213;SDS011;60138;55.808;37.078;2023-03-23T06:50:31;8.83;;;6.10;;
70213;SDS011;60138;55.808;37.078;2023-03-23T06:52:58;10.60;;;7.50;;
70213;SDS011;60138;55.808;37.078;2023-03-23T06:55:24;9.32;;;6.55;;
70213;SDS011;60138;55.808;37.078;2023-03-23T06:57:49;9.90;;;6.87;;
70213;SDS011;60138;55.808;37.078;2023-03-23T07:00:15;7.30;;;5.25;;
70213;SDS011;60138;55.808;37.078;2023-03-23T07:02:43;13.80;;;8.40;;
70213;SDS011;60138;55.808;37.078;2023-03-23T07:05:09;13.30;;;6.40;;
70213;SDS011;60138;55.808;37.078;2023-03-23T07:07:37;8.85;;;6.05;;
70213;SDS011;60138;55.808;37.078;2023-03-23T07:10:20;10.55;;;6.40;;
70213;SDS011;60138;55.808;37.078;2023-03-23T07:12:46;9.50;;;7.45;;
70213;SDS011;60138;55.808;37.078;2023-03-23T07:15:12;8.27;;;6.20;;
70213;SDS011;60138;55.808;37.078;2023-03-23T07:17:40;9.57;;;7.03;;
70213;SDS011;60138;55.808;37.078;2023-03-23T07:20:26;10.25;;;6.40;;
70213;SDS011;60138;55.808;37.078;2023-03-23T07:22:53;10.50;;;6.00;;
70213;SDS011;60138;55.808;37.078;2023-03-23T07:25:35;9.60;;;5.63;;
70213;SDS011;60138;55.808;37.078;2023-03-23T07:28:02;7.53;;;6.03;;
70213;SDS011;60138;55.808;37.078;2023-03-23T07:30:28;10.40;;;6.97;;
70213;SDS011;60138;55.808;37.078;2023-03-23T07:32:56;10.02;;;7.72;;
70213;SDS011;60138;55.808;37.078;2023-03-23T07:35:22;10.40;;;6.47;;
70213;SDS011;60138;55.808;37.078;2023-03-23T07:37:58;13.23;;;6.78;;
70213;SDS011;60138;55.808;37.078;2023-03-23T07:40:25;7.72;;;6.05;;
70213;SDS011;60138;55.808;37.078;2023-03-23T07:42:54;13.30;;;7.10;;
70213;SDS011;60138;55.808;37.078;2023-03-23T07:45:35;8.17;;;5.80;;
70213;SDS011;60138;55.808;37.078;2023-03-23T07:48:01;11.45;;;7.15;;
70213;SDS011;60138;55.808;37.078;2023-03-23T07:50:28;9.68;;;5.90;;
70213;SDS011;60138;55.808;37.078;2023-03-23T07:52:55;10.60;;;7.03;;
70213;SDS011;60138;55.808;37.078;2023-03-23T07:55:24;10.35;;;6.15;;
70213;SDS011;60138;55.808;37.078;2023-03-23T07:58:06;10.45;;;7.00;;
70213;SDS011;60138;55.808;37.078;2023-03-23T08:00:31;10.13;;;6.50;;
70213;SDS011;60138;55.808;37.078;2023-03-23T08:02:57;9.23;;;6.17;;
70213;SDS011;60138;55.808;37.078;2023-03-23T08:05:46;9.95;;;7.00;;
70213;SDS011;60138;55.808;37.078;2023-03-23T08:08:12;9.07;;;7.03;;
70213;SDS011;60138;55.808;37.078;2023-03-23T08:11:08;10.67;;;5.77;;
70213;SDS011;60138;55.808;37.078;2023-03-23T08:13:37;10.32;;;6.70;;
70213;SDS011;60138;55.808;37.078;2023-03-23T08:16:18;8.60;;;6.43;;
70213;SDS011;60138;55.808;37.078;2023-03-23T08:18:59;13.18;;;6.85;;
70213;SDS011;60138;55.808;37.078;2023-03-23T08:21:38;9.77;;;6.53;;
70213;SDS011;60138;55.808;37.078;2023-03-23T08:24:24;13.37;;;6.13;;
70213;SDS011;60138;55.808;37.078;2023-03-23T08:27:08;9.55;;;6.60;;
70213;SDS011;60138;55.808;37.078;2023-03-23T08:29:52;8.35;;;5.25;;
70213;SDS011;60138;55.808;37.078;2023-03-23T08:32:38;8.57;;;5.82;;
70213;SDS011;60138;55.808;37.078;2023-03-23T08:35:40;7.20;;;5.75;;
70213;SDS011;60138;55.808;37.078;2023-03-23T08:38:05;8.33;;;5.97;;
70213;SDS011;60138;55.808;37.078;2023-03-23T08:41:09;9.35;;;5.90;;
70213;SDS011;60138;55.808;37.078;2023-03-23T08:43:54;8.93;;;5.40;;
70213;SDS011;60138;55.808;37.078;2023-03-23T08:46:39;9.80;;;6.57;;
70213;SDS011;60138;55.808;37.078;2023-03-23T08:49:23;7.32;;;5.75;;
70213;SDS011;60138;55.808;37.078;2023-03-23T08:51:49;9.02;;;6.55;;
70213;SDS011;60138;55.808;37.078;2023-03-23T08:54:35;11.20;;;6.22;;
70213;SDS011;60138;55.808;37.078;2023-03-23T08:57:20;6.47;;;4.68;;
70213;SDS011;60138;55.808;37.078;2023-03-23T08:59:55;8.50;;;4.90;;
70213;SDS011;60138;55.808;37.078;2023-03-23T09:02:54;7.13;;;5.00;;
70213;SDS011;60138;55.808;37.078;2023-03-23T09:05:22;7.20;;;4.88;;
70213;SDS011;60138;55.808;37.078;2023-03-23T09:08:15;8.35;;;5.30;;
70213;SDS011;60138;55.808;37.078;2023-03-23T09:10:41;8.45;;;5.40;;
70213;SDS011;60138;55.808;37.078;2023-03-23T09:13:06;7.73;;;5.17;;
70213;SDS011;60138;55.808;37.078;2023-03-23T09:15:32;10.27;;;4.60;;
70213;SDS011;60138;55.808;37.078;2023-03-23T09:17:58;10.17;;;4.90;;
70213;SDS011;60138;55.808;37.078;2023-03-23T09:20:25;6.97;;;4.75;;
70213;SDS011;60138;55.808;37.078;2023-03-23T09:22:52;6.57;;;4.68;;
70213;SDS011;60138;55.808;37.078;2023-03-23T09:25:21;8.90;;;4.50;;
70213;SDS011;60138;55.808;37.078;2023-03-23T09:27:49;6.93;;;4.70;;
70213;SDS011;60138;55.808;37.078;2023-03-23T09:30:17;7.13;;;4.40;;
70213;SDS011;60138;55.808;37.078;2023-03-23T09:32:43;6.32;;;4.43;;
70213;SDS011;60138;55.808;37.078;2023-03-23T09:35:09;8.23;;;5.90;;
70213;SDS011;60138;55.808;37.078;2023-03-23T09:37:35;8.23;;;5.63;;
70213;SDS011;60138;55.808;37.078;2023-03-23T09:40:02;7.70;;;4.72;;
70213;SDS011;60138;55.808;37.078;2023-03-23T09:42:45;6.65;;;4.40;;
70213;SDS011;60138;55.808;37.078;2023-03-23T09:45:28;7.03;;;4.90;;
70213;SDS011;60138;55.808;37.078;2023-03-23T09:48:29;6.70;;;4.77;;
70213;SDS011;60138;55.808;37.078;2023-03-23T09:56:59;6.60;;;4.40;;
70213;SDS011;60138;55.808;37.078;2023-03-23T10:02:12;6.97;;;4.93;;
70213;SDS011;60138;55.808;37.078;2023-03-23T10:04:44;6.93;;;4.32;;
70213;SDS011;60138;55.808;37.078;2023-03-23T10:07:19;6.28;;;4.18;;
70213;SDS011;60138;55.808;37.078;2023-03-23T10:09:48;9.10;;;4.53;;
70213;SDS011;60138;55.808;37.078;2023-03-23T10:12:26;6.10;;;4.07;;
70213;SDS011;60138;55.808;37.078;2023-03-23T10:15:17;6.00;;;4.13;;
70213;SDS011;60138;55.808;37.078;2023-03-23T10:17:58;10.00;;;4.18;;
70213;SDS011;60138;55.808;37.078;2023-03-23T10:20:30;6.20;;;4.47;;
70213;SDS011;60138;55.808;37.078;2023-03-23T10:25:57;7.30;;;4.53;;
70213;SDS011;60138;55.808;37.078;2023-03-23T10:28:43;5.50;;;3.77;;
70213;SDS011;60138;55.808;37.078;2023-03-23T10:31:13;6.25;;;4.10;;
70213;SDS011;60138;55.808;37.078;2023-03-23T10:33:45;6.10;;;4.70;;
70213;SDS011;60138;55.808;37.078;2023-03-23T10:36:31;6.97;;;5.22;;
70213;SDS011;60138;55.808;37.078;2023-03-23T10:41:29;6.20;;;3.67;;
70213;SDS011;60138;55.808;37.078;2023-03-23T10:43:55;6.38;;;4.28;;
70213;SDS011;60138;55.808;37.078;2023-03-23T10:46:24;6.97;;;4.13;;
70213;SDS011;60138;55.808;37.078;2023-03-23T10:49:00;5.35;;;3.58;;
70213;SDS011;60138;55.808;37.078;2023-03-23T10:51:31;7.47;;;4.30;;
70213;SDS011;60138;55.808;37.078;2023-03-23T10:54:01;5.43;;;3.95;;
70213;SDS011;60138;55.808;37.078;2023-03-23T10:56:29;4.97;;;3.15;;
70213;SDS011;60138;55.808;37.078;2023-03-23T10:59:11;5.83;;;4.20;;
70213;SDS011;60138;55.808;37.078;2023-03-23T11:01:52;5.85;;;3.55;;
70213;SDS011;60138;55.808;37.078;2023-03-23T11:04:19;6.85;;;3.92;;
70213;SDS011;60138;55.808;37.078;2023-03-23T11:06:48;7.72;;;4.10;;
70213;SDS011;60138;55.808;37.078;2023-03-23T11:09:18;5.93;;;4.05;;
70213;SDS011;60138;55.808;37.078;2023-03-23T11:11:49;5.33;;;4.17;;
70213;SDS011;60138;55.808;37.078;2023-03-23T11:14:19;5.75;;;3.80;;
70213;SDS011;60138;55.808;37.078;2023-03-23T11:16:52;5.60;;;3.58;;
70213;SDS011;60138;55.808;37.078;2023-03-23T11:19:37;6.88;;;4.05;;
70213;SDS011;60138;55.808;37.078;2023-03-23T11:24:28;6.23;;;3.93;;
70213;SDS011;60138;55.808;37.078;2023-03-23T11:26:55;6.35;;;4.35;;
70213;SDS011;60138;55.808;37.078;2023-03-23T11:29:24;6.43;;;3.83;;
70213;SDS011;60138;55.808;37.078;2023-03-23T11:34:45;6.03;;;3.67;;
70213;SDS011;60138;55.808;37.078;2023-03-23T11:37:24;4.35;;;3.03;;
70213;SDS011;60138;55.808;37.078;2023-03-23T11:39:55;4.50;;;3.47;;
70213;SDS011;60138;55.808;37.078;2023-03-23T11:45:24;7.65;;;4.20;;
70213;SDS011;60138;55.808;37.078;2023-03-23T11:50:31;5.63;;;3.70;;
70213;SDS011;60138;55.808;37.078;2023-03-23T11:58:15;5.80;;;3.95;;
70213;SDS011;60138;55.808;37.078;2023-03-23T12:00:48;4.65;;;3.25;;
70213;SDS011;60138;55.808;37.078;2023-03-23T12:03:15;9.82;;;3.40;;
70213;SDS011;60138;55.808;37.078;2023-03-23T12:06:03;4.97;;;3.53;;
70213;SDS011;60138;55.808;37.078;2023-03-23T12:08:57;6.07;;;3.97;;
70213;SDS011;60138;55.808;37.078;2023-03-23T12:36:31;6.27;;;3.63;;
70213;SDS011;60138;55.808;37.078;2023-03-23T12:42:07;5.88;;;3.47;;
70213;SDS011;60138;55.808;37.078;2023-03-23T12:44:53;6.45;;;3.75;;
70213;SDS011;60138;55.808;37.078;2023-03-23T12:55:30;6.63;;;3.75;;
70213;SDS011;60138;55.808;37.078;2023-03-23T12:58:07;4.93;;;3.53;;
70213;SDS011;60138;55.808;37.078;2023-03-23T13:00:49;5.95;;;4.10;;
70213;SDS011;60138;55.808;37.078;2023-03-23T13:03:23;5.60;;;3.57;;
70213;SDS011;60138;55.808;37.078;2023-03-23T13:05:55;5.45;;;3.67;;
70213;SDS011;60138;55.808;37.078;2023-03-23T13:08:34;6.50;;;4.40;;
70213;SDS011;60138;55.808;37.078;2023-03-23T13:11:05;5.88;;;4.13;;
70213;SDS011;60138;55.808;37.078;2023-03-23T13:13:50;4.88;;;3.20;;
70213;SDS011;60138;55.808;37.078;2023-03-23T13:21:28;6.55;;;3.97;;
70213;SDS011;60138;55.808;37.078;2023-03-23T13:24:05;6.90;;;3.47;;
70213;SDS011;60138;55.808;37.078;2023-03-23T13:26:38;5.25;;;3.78;;
70213;SDS011;60138;55.808;37.078;2023-03-23T13:29:09;6.13;;;3.30;;
70213;SDS011;60138;55.808;37.078;2023-03-23T13:31:39;7.95;;;3.70;;
70213;SDS011;60138;55.808;37.078;2023-03-23T13:34:10;5.95;;;3.63;;
70213;SDS011;60138;55.808;37.078;2023-03-23T13:37:20;10.73;;;3.80;;
70213;SDS011;60138;55.808;37.078;2023-03-23T13:42:01;5.90;;;3.90;;
70213;SDS011;60138;55.808;37.078;2023-03-23T13:49:54;6.87;;;4.20;;
70213;SDS011;60138;55.808;37.078;2023-03-23T14:05:43;5.20;;;3.40;;
70213;SDS011;60138;55.808;37.078;2023-03-23T14:10:56;5.90;;;3.60;;
70213;SDS011;60138;55.808;37.078;2023-03-23T14:13:34;6.80;;;4.33;;
70213;SDS011;60138;55.808;37.078;2023-03-23T14:16:02;7.07;;;3.97;;
70213;SDS011;60138;55.808;37.078;2023-03-23T14:18:37;11.60;;;5.13;;
70213;SDS011;60138;55.808;37.078;2023-03-23T14:21:05;5.88;;;4.28;;
70213;SDS011;60138;55.808;37.078;2023-03-23T14:23:32;6.25;;;4.40;;
70213;SDS011;60138;55.808;37.078;2023-03-23T14:26:00;11.40;;;8.00;;
70213;SDS011;60138;55.808;37.078;2023-03-23T14:28:30;19.90;;;10.27;;
70213;SDS011;60138;55.808;37.078;2023-03-23T14:30:56;15.20;;;9.95;;
70213;SDS011;60138;55.808;37.078;2023-03-23T14:33:22;18.55;;;10.52;;
70213;SDS011;60138;55.808;37.078;2023-03-23T14:35:51;19.10;;;10.20;;
70213;SDS011;60138;55.808;37.078;2023-03-23T14:38:21;21.65;;;11.23;;
70213;SDS011;60138;55.808;37.078;2023-03-23T14:40:48;19.08;;;10.35;;
70213;SDS011;60138;55.808;37.078;2023-03-23T14:43:15;16.17;;;9.00;;
70213;SDS011;60138;55.808;37.078;2023-03-23T14:45:42;16.50;;;7.47;;
70213;SDS011;60138;55.808;37.078;2023-03-23T14:48:09;11.30;;;6.17;;
70213;SDS011;60138;55.808;37.078;2023-03-23T14:50:40;9.60;;;5.75;;
70213;SDS011;60138;55.808;37.078;2023-03-23T14:53:18;10.65;;;6.38;;
70213;SDS011;60138;55.808;37.078;2023-03-23T14:55:47;12.05;;;5.68;;
70213;SDS011;60138;55.808;37.078;2023-03-23T14:58:15;7.93;;;4.97;;
70213;SDS011;60138;55.808;37.078;2023-03-23T15:01:02;6.93;;;4.88;;
70213;SDS011;60138;55.808;37.078;2023-03-23T15:03:31;7.10;;;4.85;;
70213;SDS011;60138;55.808;37.078;2023-03-23T15:06:05;8.00;;;4.32;;
70213;SDS011;60138;55.808;37.078;2023-03-23T15:08:35;8.60;;;4.70;;
70213;SDS011;60138;55.808;37.078;2023-03-23T15:13:33;10.43;;;4.30;;
70213;SDS011;60138;55.808;37.078;2023-03-23T15:16:07;6.43;;;3.97;;
70213;SDS011;60138;55.808;37.078;2023-03-23T15:18:40;5.95;;;4.70;;
70213;SDS011;60138;55.808;37.078;2023-03-23T15:21:22;8.93;;;4.70;;
70213;SDS011;60138;55.808;37.078;2023-03-23T15:23:52;7.95;;;4.45;;
70213;SDS011;60138;55.808;37.078;2023-03-23T15:31:42;8.55;;;4.70;;
70213;SDS011;60138;55.808;37.078;2023-03-23T15:34:12;6.43;;;4.10;;
70213;SDS011;60138;55.808;37.078;2023-03-23T15:37:03;10.98;;;4.45;;
70213;SDS011;60138;55.808;37.078;2023-03-23T15:39:31;7.82;;;4.55;;
70213;SDS011;60138;55.808;37.078;2023-03-23T15:41:58;8.63;;;4.35;;
70213;SDS011;60138;55.808;37.078;2023-03-23T15:46:51;7.50;;;4.83;;
70213;SDS011;60138;55.808;37.078;2023-03-23T15:49:26;8.82;;;4.60;;
70213;SDS011;60138;55.808;37.078;2023-03-23T15:51:52;8.10;;;4.80;;
70213;SDS011;60138;55.808;37.078;2023-03-23T15:54:18;7.00;;;4.03;;
70213;SDS011;60138;55.808;37.078;2023-03-23T15:56:43;7.87;;;4.00;;
70213;SDS011;60138;55.808;37.078;2023-03-23T15:59:10;7.97;;;4.57;;
70213;SDS011;60138;55.808;37.078;2023-03-23T16:01:36;6.87;;;4.87;;
70213;SDS011;60138;55.808;37.078;2023-03-23T16:06:30;7.95;;;4.75;;
70213;SDS011;60138;55.808;37.078;2023-03-23T16:08:58;5.90;;;4.53;;
70213;SDS011;60138;55.808;37.078;2023-03-23T16:11:25;7.38;;;4.80;;
70213;SDS011;60138;55.808;37.078;2023-03-23T16:13:52;7.80;;;4.25;;
70213;SDS011;60138;55.808;37.078;2023-03-23T16:16:26;6.57;;;4.33;;
70213;SDS011;60138;55.808;37.078;2023-03-23T16:18:54;7.25;;;4.97;;
70213;SDS011;60138;55.808;37.078;2023-03-23T16:21:20;8.45;;;4.90;;
70213;SDS011;60138;55.808;37.078;2023-03-23T16:23:46;8.48;;;5.93;;
70213;SDS011;60138;55.808;37.078;2023-03-23T16:26:12;8.90;;;5.20;;
70213;SDS011;60138;55.808;37.078;2023-03-23T16:28:39;7.88;;;5.43;;
70213;SDS011;60138;55.808;37.078;2023-03-23T16:31:05;7.77;;;4.57;;
70213;SDS011;60138;55.808;37.078;2023-03-23T16:33:31;9.85;;;5.35;;
70213;SDS011;60138;55.808;37.078;2023-03-23T16:35:57;6.68;;;4.72;;
70213;SDS011;60138;55.808;37.078;2023-03-23T16:38:23;7.13;;;5.00;;
70213;SDS011;60138;55.808;37.078;2023-03-23T16:40:49;10.18;;;5.90;;
70213;SDS011;60138;55.808;37.078;2023-03-23T16:43:15;7.38;;;4.50;;
70213;SDS011;60138;55.808;37.078;2023-03-23T16:45:42;8.15;;;4.90;;
70213;SDS011;60138;55.808;37.078;2023-03-23T16:48:09;9.40;;;5.27;;
70213;SDS011;60138;55.808;37.078;2023-03-23T16:50:36;7.35;;;5.20;;
70213;SDS011;60138;55.808;37.078;2023-03-23T16:53:03;7.57;;;4.97;;
70213;SDS011;60138;55.808;37.078;2023-03-23T16:55:30;8.73;;;4.90;;
70213;SDS011;60138;55.808;37.078;2023-03-23T16:57:56;9.00;;;5.57;;
70213;SDS011;60138;55.808;37.078;2023-03-23T17:00:22;7.40;;;5.23;;
70213;SDS011;60138;55.808;37.078;2023-03-23T17:02:49;8.45;;;5.07;;
70213;SDS011;60138;55.808;37.078;2023-03-23T17:05:16;7.53;;;5.28;;
70213;SDS011;60138;55.808;37.078;2023-03-23T17:07:43;6.95;;;5.57;;